createdAt,value
2018-12-13T00:01:23.182Z,2.60
2018-12-13T00:03:51.526Z,5.57
2018-12-13T00:06:19.742Z,5.53
2018-12-13T00:08:47.985Z,3.20
2018-12-13T00:11:16.440Z,3.80
2018-12-13T00:13:44.800Z,4.27
2018-12-13T00:16:13.055Z,3.50
2018-12-13T00:18:41.363Z,3.67
2018-12-13T00:21:09.609Z,2.27
2018-12-13T00:23:37.855Z,3.07
2018-12-13T00:26:06.121Z,2.37
2018-12-13T00:28:34.371Z,5.00
2018-12-13T00:31:02.594Z,2.77
2018-12-13T00:33:30.928Z,2.73
2018-12-13T00:35:59.160Z,4.23
2018-12-13T00:38:27.471Z,4.60
2018-12-13T00:40:55.713Z,2.97
2018-12-13T00:43:23.982Z,4.00
2018-12-13T00:45:52.260Z,3.43
2018-12-13T00:48:20.475Z,2.80
2018-12-13T00:50:48.715Z,2.40
2018-12-13T00:53:17.005Z,2.40
2018-12-13T00:55:45.318Z,4.50
2018-12-13T00:58:13.653Z,2.97
2018-12-13T01:00:41.906Z,3.50
2018-12-13T01:03:10.136Z,3.10
2018-12-13T01:05:38.371Z,2.83
2018-12-13T01:08:06.737Z,3.00
2018-12-13T01:10:34.973Z,3.60
2018-12-13T01:13:03.233Z,3.27
2018-12-13T01:15:34.401Z,2.93
2018-12-13T01:18:02.947Z,4.37
2018-12-13T01:20:31.312Z,5.10
2018-12-13T01:22:59.571Z,4.27
2018-12-13T01:25:27.794Z,4.20
2018-12-13T01:27:56.037Z,4.50
2018-12-13T01:30:30.904Z,2.50
2018-12-13T01:32:59.151Z,5.23
2018-12-13T01:35:27.470Z,4.47
2018-12-13T01:37:55.729Z,3.03
2018-12-13T01:40:23.956Z,3.23
2018-12-13T01:42:52.189Z,4.83
2018-12-13T01:45:20.528Z,2.87
2018-12-13T01:47:48.854Z,3.83
2018-12-13T01:50:17.087Z,5.33
2018-12-13T01:52:45.345Z,3.50
2018-12-13T01:55:13.573Z,3.83
2018-12-13T01:57:41.807Z,3.93
2018-12-13T02:00:10.072Z,3.70
2018-12-13T02:02:38.316Z,3.57
2018-12-13T02:05:06.707Z,2.70
2018-12-13T02:07:34.998Z,2.90
2018-12-13T02:10:03.354Z,5.80
2018-12-13T02:12:31.614Z,3.07
2018-12-13T02:15:05.977Z,3.03
2018-12-13T02:17:34.321Z,3.50
2018-12-13T02:20:02.621Z,4.40
2018-12-13T02:22:30.951Z,4.30
2018-12-13T02:24:59.288Z,3.23
2018-12-13T02:27:27.502Z,3.97
2018-12-13T02:29:55.740Z,4.07
2018-12-13T02:32:24.193Z,4.53
2018-12-13T02:34:52.442Z,4.57
2018-12-13T02:37:20.701Z,2.90
2018-12-13T02:39:48.968Z,3.43
2018-12-13T02:42:20.870Z,3.23
2018-12-13T02:44:49.096Z,3.70
2018-12-13T02:47:17.449Z,3.43
2018-12-13T02:49:45.680Z,3.70
2018-12-13T02:52:13.886Z,4.33
2018-12-13T02:54:42.119Z,4.57
2018-12-13T02:57:10.394Z,2.80
2018-12-13T02:59:38.905Z,3.00
2018-12-13T03:02:07.189Z,3.10
2018-12-13T03:04:35.534Z,3.83
2018-12-13T03:07:04.023Z,2.93
2018-12-13T03:09:32.224Z,2.17
2018-12-13T03:12:00.470Z,4.43
2018-12-13T03:14:29.059Z,2.50
2018-12-13T03:16:57.347Z,3.73
2018-12-13T03:19:25.561Z,3.37
2018-12-13T03:21:53.764Z,2.97
2018-12-13T03:24:22.087Z,4.17
2018-12-13T03:26:50.337Z,5.27
2018-12-13T03:29:18.587Z,2.63
2018-12-13T03:31:46.880Z,1.93
2018-12-13T03:34:15.152Z,2.90
2018-12-13T03:36:43.407Z,3.90
2018-12-13T03:39:11.841Z,2.03
2018-12-13T03:41:40.067Z,3.13
2018-12-13T03:44:08.271Z,3.57
2018-12-13T03:46:36.501Z,3.30
2018-12-13T03:49:04.721Z,2.83
2018-12-13T03:51:33.090Z,3.13
2018-12-13T03:54:01.380Z,2.87
2018-12-13T03:56:29.746Z,2.30
2018-12-13T03:58:58.059Z,2.90
2018-12-13T04:01:26.272Z,4.50
2018-12-13T04:03:54.485Z,4.63
2018-12-13T04:06:22.694Z,3.90
2018-12-13T04:08:51.021Z,3.50
2018-12-13T04:11:19.266Z,2.07
2018-12-13T04:13:47.492Z,2.17
2018-12-13T04:16:15.748Z,4.67
2018-12-13T04:18:43.958Z,2.90
2018-12-13T04:21:12.142Z,2.90
2018-12-13T04:23:40.419Z,2.40
2018-12-13T04:26:08.686Z,3.97
2018-12-13T04:28:36.961Z,3.87
2018-12-13T04:31:05.182Z,3.63
2018-12-13T04:33:33.537Z,3.20
2018-12-13T04:36:01.800Z,2.30
2018-12-13T04:38:30.049Z,3.00
2018-12-13T04:40:58.252Z,2.80
2018-12-13T04:43:26.497Z,4.13
2018-12-13T04:45:54.789Z,2.33
2018-12-13T04:48:23.076Z,4.60
2018-12-13T04:50:51.325Z,3.07
2018-12-13T04:53:19.576Z,3.20
2018-12-13T04:55:47.913Z,2.87
2018-12-13T04:58:16.259Z,3.47
2018-12-13T05:00:44.475Z,2.70
2018-12-13T05:03:12.682Z,3.93
2018-12-13T05:05:40.990Z,4.27
2018-12-13T05:08:09.268Z,4.10
2018-12-13T05:10:49.026Z,3.47
2018-12-13T05:13:17.424Z,3.33
2018-12-13T05:15:45.803Z,4.17
2018-12-13T05:18:14.255Z,3.07
2018-12-13T05:20:42.539Z,3.33
2018-12-13T05:23:10.753Z,3.30
2018-12-13T05:25:39.133Z,2.93
2018-12-13T05:28:07.525Z,4.57
2018-12-13T05:30:35.769Z,3.70
2018-12-13T05:33:04.083Z,3.50
2018-12-13T05:35:32.373Z,5.00
2018-12-13T05:38:00.667Z,4.13
2018-12-13T05:40:28.884Z,4.07
2018-12-13T05:42:57.154Z,3.73
2018-12-13T05:45:25.379Z,3.80
2018-12-13T05:47:53.607Z,4.00
2018-12-13T05:50:21.891Z,5.27
2018-12-13T05:52:50.096Z,3.70
2018-12-13T05:55:18.302Z,3.93
2018-12-13T05:57:46.698Z,4.13
2018-12-13T06:00:15.065Z,4.40
2018-12-13T06:02:43.414Z,5.23
2018-12-13T06:05:11.617Z,4.80
2018-12-13T06:07:39.873Z,5.13
2018-12-13T06:10:08.331Z,5.30
2018-12-13T06:12:36.559Z,5.60
2018-12-13T06:15:05.944Z,5.20
2018-12-13T06:17:34.237Z,6.03
2018-12-13T06:20:02.417Z,4.87
2018-12-13T06:22:30.757Z,5.40
2018-12-13T06:24:59.048Z,4.10
2018-12-13T06:27:27.286Z,5.43
2018-12-13T06:29:58.891Z,4.27
2018-12-13T06:32:25.815Z,8.20
2018-12-13T06:34:54.106Z,5.63
2018-12-13T06:37:22.333Z,6.43
2018-12-13T06:39:50.605Z,6.80
2018-12-13T06:42:18.845Z,6.00
2018-12-13T06:44:47.142Z,6.90
2018-12-13T06:47:15.514Z,6.17
2018-12-13T06:49:43.730Z,7.57
2018-12-13T06:52:11.979Z,5.23
2018-12-13T06:57:33.622Z,6.70
2018-12-13T07:02:55.068Z,8.43
2018-12-13T07:05:23.360Z,6.33
2018-12-13T07:07:51.640Z,4.83
2018-12-13T07:10:19.856Z,4.77
2018-12-13T07:12:48.052Z,6.73
2018-12-13T07:15:16.294Z,5.57
2018-12-13T07:17:44.513Z,5.80
2018-12-13T07:20:12.781Z,6.47
2018-12-13T07:22:40.977Z,5.97
2018-12-13T07:25:09.341Z,5.57
2018-12-13T07:27:37.677Z,6.03
2018-12-13T07:30:07.490Z,5.93
2018-12-13T07:32:35.734Z,5.60
2018-12-13T07:35:04.288Z,5.03
2018-12-13T07:37:32.581Z,4.73
2018-12-13T07:40:00.833Z,6.87
2018-12-13T07:42:29.060Z,5.93
2018-12-13T07:44:57.297Z,7.93
2018-12-13T07:47:25.653Z,6.67
2018-12-13T07:49:53.909Z,5.50
2018-12-13T07:52:22.147Z,4.40
2018-12-13T07:54:50.365Z,6.10
2018-12-13T07:57:18.764Z,4.57
2018-12-13T07:59:47.002Z,4.67
2018-12-13T08:02:15.382Z,5.10
2018-12-13T08:04:43.628Z,4.60
2018-12-13T08:07:12.011Z,5.63
2018-12-13T08:09:40.393Z,4.53
2018-12-13T08:12:08.634Z,6.10
2018-12-13T08:14:37.873Z,4.37
2018-12-13T08:17:06.101Z,5.40
2018-12-13T08:19:34.331Z,4.33
2018-12-13T08:22:02.627Z,6.17
2018-12-13T08:24:30.837Z,5.33
2018-12-13T08:26:59.170Z,5.03
2018-12-13T08:29:27.415Z,5.20
2018-12-13T08:31:55.677Z,4.97
2018-12-13T08:34:23.892Z,5.37
2018-12-13T08:36:52.223Z,5.00
2018-12-13T08:39:20.478Z,4.90
2018-12-13T08:41:48.853Z,5.63
2018-12-13T08:44:17.210Z,5.47
2018-12-13T08:46:45.439Z,5.57
2018-12-13T08:49:13.783Z,5.33
2018-12-13T08:51:42.169Z,5.30
2018-12-13T08:54:10.422Z,6.23
2018-12-13T08:56:38.656Z,5.20
2018-12-13T08:59:06.935Z,5.60
2018-12-13T09:01:35.198Z,6.60
2018-12-13T09:04:03.429Z,6.10
2018-12-13T09:06:35.827Z,5.70
2018-12-13T09:09:06.536Z,5.40
2018-12-13T09:11:34.801Z,8.47
2018-12-13T09:14:03.390Z,5.30
2018-12-13T09:16:31.876Z,5.13
2018-12-13T09:19:00.189Z,5.03
2018-12-13T09:21:28.448Z,5.07
2018-12-13T09:23:56.814Z,5.40
2018-12-13T09:26:25.121Z,6.17
2018-12-13T09:28:53.376Z,4.17
2018-12-13T09:31:21.740Z,5.57
2018-12-13T09:33:50.170Z,4.80
2018-12-13T09:36:18.502Z,4.63
2018-12-13T09:38:46.805Z,6.60
2018-12-13T09:41:15.204Z,4.40
2018-12-13T09:43:43.574Z,4.27
2018-12-13T09:46:11.866Z,4.23
2018-12-13T09:48:40.162Z,3.87
2018-12-13T09:51:08.468Z,4.80
2018-12-13T09:53:36.794Z,4.77
2018-12-13T09:56:05.161Z,4.70
2018-12-13T09:58:33.430Z,4.30
2018-12-13T10:01:01.800Z,4.60
2018-12-13T10:03:30.134Z,4.23
2018-12-13T10:05:58.455Z,6.07
2018-12-13T10:08:26.769Z,4.83
2018-12-13T10:10:55.100Z,4.77
2018-12-13T10:13:23.290Z,6.17
2018-12-13T10:15:58.265Z,4.60
2018-12-13T10:18:26.542Z,3.93
2018-12-13T10:20:54.784Z,5.30
2018-12-13T10:23:23.097Z,7.10
2018-12-13T10:28:43.853Z,5.80
2018-12-13T10:34:05.299Z,5.47
2018-12-13T10:36:33.555Z,5.20
2018-12-13T10:39:01.906Z,5.40
2018-12-13T10:41:30.189Z,4.37
2018-12-13T10:43:58.622Z,5.07
2018-12-13T10:46:26.996Z,7.33
2018-12-13T10:48:55.272Z,5.07
2018-12-13T10:51:23.556Z,7.83
2018-12-13T10:53:52.247Z,4.50
2018-12-13T10:56:20.678Z,5.23
2018-12-13T10:58:49.089Z,6.73
2018-12-13T11:01:22.811Z,4.33
2018-12-13T11:03:51.311Z,4.10
2018-12-13T11:06:19.664Z,3.73
2018-12-13T11:08:47.941Z,5.20
2018-12-13T11:11:16.254Z,4.17
2018-12-13T11:13:51.108Z,4.07
2018-12-13T11:16:19.407Z,4.03
2018-12-13T11:18:47.692Z,6.37
2018-12-13T11:21:17.359Z,3.50
2018-12-13T11:23:45.951Z,6.83
2018-12-13T11:26:14.252Z,4.83
2018-12-13T11:29:57.003Z,3.83
2018-12-13T11:32:25.677Z,4.00
2018-12-13T11:34:54.004Z,3.87
2018-12-13T11:37:22.424Z,2.30
2018-12-13T11:39:50.715Z,3.03
2018-12-13T11:42:18.983Z,4.40
2018-12-13T11:44:47.234Z,3.03
2018-12-13T11:47:15.659Z,3.00
2018-12-13T11:49:44.061Z,6.50
2018-12-13T11:55:13.740Z,2.70
2018-12-13T11:57:42.040Z,2.50
2018-12-13T12:00:10.521Z,2.50
2018-12-13T12:02:38.784Z,4.43
2018-12-13T12:05:07.145Z,2.83
2018-12-13T12:07:35.376Z,2.67
2018-12-13T12:10:03.903Z,3.00
2018-12-13T12:12:32.196Z,3.10
2018-12-13T12:15:00.447Z,4.97
2018-12-13T12:17:28.782Z,4.13
2018-12-13T12:19:57.039Z,3.40
2018-12-13T12:22:25.311Z,5.60
2018-12-13T12:24:53.691Z,3.73
2018-12-13T12:27:21.934Z,3.60
2018-12-13T12:29:50.214Z,7.00
2018-12-13T12:32:18.471Z,4.10
2018-12-13T12:34:46.738Z,7.83
2018-12-13T12:37:15.009Z,4.27
2018-12-13T12:39:43.240Z,3.57
2018-12-13T12:42:11.502Z,4.00
2018-12-13T12:44:41.905Z,4.30
2018-12-13T12:47:10.493Z,3.67
2018-12-13T12:49:38.821Z,4.33
2018-12-13T12:52:07.088Z,3.20
2018-12-13T12:54:35.381Z,5.37
2018-12-13T12:57:03.715Z,6.83
2018-12-13T12:59:31.963Z,4.23
2018-12-13T13:02:00.278Z,5.83
2018-12-13T13:04:28.515Z,4.77
2018-12-13T13:06:56.805Z,3.60
2018-12-13T13:09:25.399Z,4.57
2018-12-13T13:11:53.686Z,4.77
2018-12-13T13:14:22.032Z,3.70
2018-12-13T13:16:50.275Z,3.80
2018-12-13T13:19:18.568Z,3.50
2018-12-13T13:21:46.798Z,5.10
2018-12-13T13:24:15.203Z,4.23
2018-12-13T13:26:43.583Z,4.77
2018-12-13T13:29:11.838Z,5.73
2018-12-13T13:31:40.159Z,3.93
2018-12-13T13:34:08.533Z,4.77
2018-12-13T13:36:36.770Z,3.73
2018-12-13T13:39:07.657Z,4.33
2018-12-13T13:41:35.929Z,5.27
2018-12-13T13:44:07.266Z,5.63
2018-12-13T13:46:35.653Z,5.17
2018-12-13T13:49:04.054Z,6.20
2018-12-13T13:51:32.301Z,3.87
2018-12-13T13:54:00.526Z,9.10
2018-12-13T13:56:28.796Z,5.23
2018-12-13T13:58:57.745Z,4.43
2018-12-13T14:01:26.950Z,5.00
2018-12-13T14:03:57.289Z,4.23
2018-12-13T14:06:25.880Z,4.43
2018-12-13T14:08:55.029Z,4.07
2018-12-13T14:11:23.275Z,4.33
2018-12-13T14:13:51.540Z,5.00
2018-12-13T14:16:19.861Z,4.17
2018-12-13T14:18:48.094Z,6.10
2018-12-13T14:21:16.347Z,6.53
2018-12-13T14:23:44.672Z,6.20
2018-12-13T14:26:12.941Z,4.10
2018-12-13T14:28:41.320Z,4.37
2018-12-13T14:31:09.580Z,5.30
2018-12-13T14:33:37.973Z,4.93
2018-12-13T14:36:06.306Z,4.30
2018-12-13T14:38:34.537Z,4.80
2018-12-13T14:41:05.676Z,7.37
2018-12-13T14:43:41.069Z,4.03
2018-12-13T14:46:09.355Z,5.00
2018-12-13T14:48:37.587Z,7.57
2018-12-13T14:51:05.972Z,5.97
2018-12-13T14:53:34.258Z,4.87
2018-12-13T14:56:02.597Z,7.63
2018-12-13T14:58:30.918Z,8.50
2018-12-13T15:00:59.193Z,6.37
2018-12-13T15:03:27.824Z,5.47
2018-12-13T15:05:56.743Z,5.30
2018-12-13T15:08:25.810Z,5.77
2018-12-13T15:10:54.953Z,6.37
2018-12-13T15:13:24.194Z,5.33
2018-12-13T15:15:53.175Z,4.90
2018-12-13T15:18:22.608Z,5.83
2018-12-13T15:20:51.798Z,6.90
2018-12-13T15:23:21.060Z,7.07
2018-12-13T15:25:49.449Z,7.57
2018-12-13T15:28:17.683Z,5.00
2018-12-13T15:30:46.060Z,7.40
2018-12-13T15:33:15.004Z,10.07
2018-12-13T15:35:43.635Z,5.73
2018-12-13T15:38:12.142Z,5.80
2018-12-13T15:40:40.807Z,6.40
2018-12-13T15:43:09.091Z,10.17
2018-12-13T15:45:37.466Z,4.93
2018-12-13T15:48:05.773Z,6.10
2018-12-13T15:50:34.176Z,5.93
2018-12-13T15:53:02.459Z,6.40
2018-12-13T15:55:30.683Z,6.23
2018-12-13T15:57:59.232Z,5.83
2018-12-13T16:00:27.640Z,6.53
2018-12-13T16:02:55.919Z,6.27
2018-12-13T16:05:24.217Z,6.80
2018-12-13T16:07:52.464Z,7.93
2018-12-13T16:10:20.751Z,6.47
2018-12-13T16:12:49.052Z,6.53
2018-12-13T16:15:17.315Z,7.07
2018-12-13T16:17:46.076Z,6.93
2018-12-13T16:20:14.355Z,8.23
2018-12-13T16:22:42.647Z,6.97
2018-12-13T16:25:11.007Z,7.73
2018-12-13T16:27:39.575Z,6.03
2018-12-13T16:30:08.815Z,6.60
2018-12-13T16:32:37.023Z,10.90
2018-12-13T16:35:05.728Z,7.00
2018-12-13T16:37:33.990Z,8.83
2018-12-13T16:40:02.409Z,7.37
2018-12-13T16:42:30.761Z,7.60
2018-12-13T16:44:58.952Z,7.93
2018-12-13T16:47:27.192Z,7.23
2018-12-13T16:49:55.417Z,8.23
2018-12-13T16:52:23.657Z,8.50
2018-12-13T16:54:52.852Z,8.47
2018-12-13T16:57:21.556Z,7.80
2018-12-13T16:59:50.041Z,8.47
2018-12-13T17:05:11.254Z,7.47
2018-12-13T17:07:39.477Z,8.50
2018-12-13T17:10:09.117Z,8.43
2018-12-13T17:12:37.387Z,7.50
2018-12-13T17:15:06.770Z,8.63
2018-12-13T17:17:35.098Z,8.90
2018-12-13T17:20:03.357Z,9.07
2018-12-13T17:22:31.620Z,8.70
2018-12-13T17:24:59.920Z,7.97
2018-12-13T17:27:28.304Z,8.23
2018-12-13T17:29:56.638Z,10.67
2018-12-13T17:32:25.251Z,8.93
2018-12-13T17:34:53.599Z,8.47
2018-12-13T17:37:21.867Z,8.20
2018-12-13T17:39:50.358Z,8.00
2018-12-13T17:42:18.653Z,7.97
2018-12-13T17:44:47.062Z,11.27
2018-12-13T17:47:15.431Z,8.93
2018-12-13T17:49:43.912Z,8.40
2018-12-13T17:52:12.185Z,8.63
2018-12-13T17:54:40.538Z,7.90
2018-12-13T17:57:08.915Z,7.07
2018-12-13T17:59:37.233Z,7.73
2018-12-13T18:02:06.510Z,8.50
2018-12-13T18:04:35.248Z,8.23
2018-12-13T18:09:57.969Z,8.63
2018-12-13T18:12:26.886Z,7.50
2018-12-13T18:14:55.157Z,8.10
2018-12-13T18:17:24.520Z,7.90
2018-12-13T18:19:53.525Z,9.50
2018-12-13T18:22:22.072Z,9.40
2018-12-13T18:24:50.303Z,8.73
2018-12-13T18:27:18.664Z,8.77
2018-12-13T18:29:46.954Z,9.43
2018-12-13T18:32:15.223Z,8.73
2018-12-13T18:34:43.529Z,9.77
2018-12-13T18:37:11.839Z,8.90
2018-12-13T18:39:40.073Z,8.93
2018-12-13T18:42:08.364Z,10.00
2018-12-13T18:44:36.661Z,10.00
2018-12-13T18:47:05.690Z,9.57
2018-12-13T18:49:33.969Z,13.53
2018-12-13T18:52:02.260Z,11.83
2018-12-13T18:54:30.721Z,10.17
2018-12-13T18:56:59.038Z,9.53
2018-12-13T18:59:27.331Z,9.20
2018-12-13T19:01:55.714Z,9.20
2018-12-13T19:04:24.023Z,9.00
2018-12-13T19:06:52.402Z,10.23
2018-12-13T19:09:20.647Z,9.30
2018-12-13T19:11:48.922Z,9.77
2018-12-13T19:14:17.203Z,10.13
2018-12-13T19:16:45.572Z,10.47
2018-12-13T19:22:06.669Z,9.70
2018-12-13T19:24:35.126Z,7.80
2018-12-13T19:27:03.405Z,9.77
2018-12-13T19:29:31.748Z,10.63
2018-12-13T19:32:00.022Z,9.03
2018-12-13T19:37:21.749Z,9.40
2018-12-13T19:39:50.195Z,10.63
2018-12-13T19:42:18.535Z,7.60
2018-12-13T19:44:46.797Z,9.53
2018-12-13T19:47:15.087Z,13.07
2018-12-13T19:49:43.472Z,9.23
2018-12-13T19:52:11.832Z,7.57
2018-12-13T19:54:40.136Z,8.83
2018-12-13T19:57:08.498Z,10.67
2018-12-13T19:59:37.056Z,8.03
2018-12-13T20:02:06.766Z,8.33
2018-12-13T20:04:35.315Z,6.73
2018-12-13T20:07:03.672Z,9.30
2018-12-13T20:09:32.038Z,8.50
2018-12-13T20:12:00.552Z,7.37
2018-12-13T20:14:28.928Z,9.10
2018-12-13T20:17:07.923Z,7.43
2018-12-13T20:19:36.300Z,7.93
2018-12-13T20:22:04.724Z,8.17
2018-12-13T20:24:33.092Z,8.07
2018-12-13T20:27:01.464Z,8.63
2018-12-13T20:29:30.005Z,10.20
2018-12-13T20:34:52.121Z,10.73
2018-12-13T20:37:20.451Z,6.73
2018-12-13T20:39:49.217Z,7.37
2018-12-13T20:42:17.778Z,7.80
2018-12-13T20:44:46.103Z,6.23
2018-12-13T20:47:14.355Z,6.60
2018-12-13T20:49:43.731Z,6.53
2018-12-13T20:52:12.722Z,5.67
2018-12-13T20:54:41.033Z,4.97
2018-12-13T20:57:09.337Z,5.50
2018-12-13T20:59:37.655Z,5.63
2018-12-13T21:02:06.219Z,6.67
2018-12-13T21:04:34.715Z,7.53
2018-12-13T21:07:08.327Z,6.07
2018-12-13T21:09:36.612Z,6.30
2018-12-13T21:12:04.914Z,6.40
2018-12-13T21:14:33.244Z,7.33
2018-12-13T21:17:01.534Z,7.03
2018-12-13T21:19:29.874Z,6.23
2018-12-13T21:21:58.203Z,6.60
2018-12-13T21:24:26.643Z,7.53
2018-12-13T21:26:55.007Z,6.57
2018-12-13T21:29:23.872Z,7.03
2018-12-13T21:31:52.315Z,6.33
2018-12-13T21:34:20.719Z,7.07
2018-12-13T21:36:49.172Z,6.67
2018-12-13T21:39:17.529Z,7.20
2018-12-13T21:41:45.900Z,7.30
2018-12-13T21:44:14.148Z,8.33
2018-12-13T21:46:42.531Z,7.93
2018-12-13T21:49:10.788Z,7.53
2018-12-13T21:51:39.971Z,8.00
2018-12-13T21:54:08.330Z,6.60
2018-12-13T21:56:37.565Z,8.07
2018-12-13T21:59:07.414Z,8.30
2018-12-13T22:01:35.792Z,7.40
2018-12-13T22:04:05.023Z,7.30
2018-12-13T22:06:34.196Z,9.57
2018-12-13T22:09:02.701Z,8.93
2018-12-13T22:11:32.185Z,7.30
2018-12-13T22:14:00.642Z,7.87
2018-12-13T22:16:28.964Z,7.30
2018-12-13T22:19:04.127Z,8.17
2018-12-13T22:21:32.414Z,6.27
2018-12-13T22:24:01.610Z,7.27
2018-12-13T22:26:30.575Z,6.50
2018-12-13T22:28:59.387Z,8.17
2018-12-13T22:31:27.826Z,6.30
2018-12-13T22:33:56.200Z,5.83
2018-12-13T22:36:25.360Z,8.60
2018-12-13T22:38:53.626Z,6.70
2018-12-13T22:41:26.356Z,7.77
2018-12-13T22:43:52.340Z,7.27
2018-12-13T22:49:13.168Z,7.23
2018-12-13T22:54:34.533Z,5.27
2018-12-13T22:57:02.810Z,6.97
2018-12-13T22:59:31.170Z,6.87
2018-12-13T23:01:59.573Z,6.27
2018-12-13T23:04:27.976Z,6.00
2018-12-13T23:06:56.453Z,5.87
2018-12-13T23:09:24.655Z,5.27
2018-12-13T23:11:52.907Z,5.53
2018-12-13T23:14:21.259Z,6.73
2018-12-13T23:16:50.199Z,6.40
2018-12-13T23:19:18.487Z,7.33
2018-12-13T23:21:47.522Z,5.57
2018-12-13T23:24:16.057Z,5.73
2018-12-13T23:26:44.368Z,8.70
2018-12-13T23:29:12.772Z,5.53
2018-12-13T23:31:41.119Z,5.60
2018-12-13T23:34:09.545Z,5.10
2018-12-13T23:36:37.835Z,4.67
2018-12-13T23:39:06.844Z,5.03
2018-12-13T23:41:39.239Z,5.47
2018-12-13T23:44:05.637Z,5.20
2018-12-13T23:46:33.994Z,6.07
2018-12-13T23:49:02.258Z,5.33
2018-12-13T23:51:30.532Z,7.23
2018-12-13T23:53:58.865Z,5.73
2018-12-13T23:56:27.171Z,5.40
2018-12-13T23:58:55.748Z,7.87
